Time;durP1;ratioP1;P1;durP2;ratioP2;P2;SDS_P1;SDS_P2;PMS_P1;PMS_P2;Temp;Humidity;BMP_temperature;BMP_pressure;BME280_temperature;BME280_humidity;BME280_pressure;Samples;Min_cycle;Max_cycle;Signal;HPM_P1;HPM_P2
2023/06/28 00:01:40;;;;;;;5.95;2.33;;;;;;;16.47;80.02;101781.00;5003258;28;20041;-70
2023/06/28 00:04:05;;;;;;;6.72;2.03;;;;;;;16.49;81.04;101776.25;4986616;28;20034;-70
2023/06/28 00:06:31;;;;;;;4.53;2.10;;;;;;;16.47;81.48;101779.13;4987441;28;20042;-69
2023/06/28 00:08:58;;;;;;;5.00;2.10;;;;;;;16.49;81.94;101771.63;4987836;28;20472;-69
2023/06/28 00:11:25;;;;;;;6.53;2.33;;;;;;;16.52;81.82;101785.13;4987693;28;20042;-70
2023/06/28 00:13:51;;;;;;;6.13;2.60;;;;;;;16.54;81.94;101783.09;4987688;28;20042;-70
2023/06/28 00:16:16;;;;;;;4.82;1.90;;;;;;;16.57;82.30;101782.00;4988395;28;20049;-70
2023/06/28 00:18:43;;;;;;;7.00;1.92;;;;;;;16.56;82.03;101781.13;4988969;28;20129;-70
2023/06/28 00:21:08;;;;;;;5.55;2.40;;;;;;;16.53;82.43;101772.25;4987715;28;20042;-70
2023/06/28 00:23:34;;;;;;;4.75;2.38;;;;;;;16.55;81.51;101775.75;4987395;28;20045;-69
2023/06/28 00:25:59;;;;;;;6.57;2.55;;;;;;;16.56;82.49;101780.25;4986994;28;20030;-69
2023/06/28 00:28:24;;;;;;;4.05;2.25;;;;;;;16.57;82.71;101779.25;4987480;28;20081;-70
2023/06/28 00:30:50;;;;;;;4.45;2.08;;;;;;;16.58;82.51;101776.38;4988244;28;20460;-70
2023/06/28 00:33:19;;;;;;;5.40;2.40;;;;;;;16.59;81.73;101783.59;5002559;28;20034;-70
2023/06/28 00:35:46;;;;;;;8.40;2.90;;;;;;;16.57;82.13;101787.50;4997366;28;20473;-70
2023/06/28 00:38:12;;;;;;;3.95;2.13;;;;;;;16.57;82.44;101787.50;5007419;28;20053;-70
2023/06/28 00:40:37;;;;;;;7.28;2.53;;;;;;;16.59;82.37;101789.09;4990944;28;20042;-70
2023/06/28 00:43:03;;;;;;;5.43;2.47;;;;;;;16.60;82.97;101787.25;5002645;28;20034;-70
2023/06/28 00:45:29;;;;;;;6.65;2.25;;;;;;;16.61;82.86;101783.50;5002360;28;20065;-70
2023/06/28 00:47:54;;;;;;;5.20;2.40;;;;;;;16.61;82.96;101783.50;4986797;28;20039;-70
2023/06/28 00:50:20;;;;;;;9.73;2.47;;;;;;;16.59;81.84;101786.34;4987407;28;20157;-70
2023/06/28 00:52:46;;;;;;;6.00;2.60;;;;;;;16.56;81.65;101785.75;4987168;28;20161;-70
2023/06/28 00:55:12;;;;;;;5.88;2.45;;;;;;;16.52;80.99;101782.38;4987379;28;20053;-70
2023/06/28 00:57:38;;;;;;;4.70;2.63;;;;;;;16.51;81.23;101780.63;5002064;28;20136;-70
2023/06/28 01:00:08;;;;;;;6.55;2.53;;;;;;;16.50;81.08;101783.50;4990696;28;20041;-69
2023/06/28 01:02:33;;;;;;;8.38;3.20;;;;;;;16.43;81.09;101779.53;5007096;28;20041;-70
2023/06/28 01:04:59;;;;;;;6.30;2.80;;;;;;;16.43;82.11;101785.00;5006945;28;20060;-70
2023/06/28 01:07:28;;;;;;;9.40;3.20;;;;;;;16.38;82.23;101776.28;5004186;28;20061;-70
2023/06/28 01:09:56;;;;;;;9.02;3.33;;;;;;;16.42;82.98;101786.88;5004702;28;20478;-70
2023/06/28 01:12:24;;;;;;;7.07;2.53;;;;;;;16.43;82.19;101785.00;4999475;28;20541;-70
2023/06/28 01:14:49;;;;;;;6.65;2.92;;;;;;;16.46;82.92;101787.47;5002979;28;20049;-70
2023/06/28 01:17:15;;;;;;;6.47;2.75;;;;;;;16.47;83.58;101787.38;4987156;28;20041;-70
2023/06/28 01:19:41;;;;;;;7.40;2.95;;;;;;;16.48;83.46;101783.63;5002440;28;20125;-70
2023/06/28 01:22:09;;;;;;;6.18;3.03;;;;;;;16.48;84.68;101786.38;5001278;28;20189;-70
2023/06/28 01:24:36;;;;;;;6.95;2.63;;;;;;;16.51;83.75;101783.38;4987121;28;20341;-70
2023/06/28 01:27:02;;;;;;;8.80;3.08;;;;;;;16.53;84.48;101783.25;5001820;28;20482;-70
2023/06/28 01:29:28;;;;;;;4.45;2.78;;;;;;;16.54;83.41;101777.63;4987602;28;20057;-70
2023/06/28 01:31:56;;;;;;;6.72;2.67;;;;;;;16.54;83.96;101771.25;5002400;28;20027;-69
2023/06/28 01:34:24;;;;;;;5.50;2.80;;;;;;;16.55;83.64;101773.91;4986963;28;20030;-70
2023/06/28 01:36:53;;;;;;;7.70;2.97;;;;;;;16.55;82.86;101773.91;4984895;28;20127;-70
2023/06/28 01:39:21;;;;;;;9.73;3.47;;;;;;;16.56;83.35;101774.75;4986521;28;20069;-70
2023/06/28 01:41:47;;;;;;;7.97;3.45;;;;;;;16.57;83.40;101773.75;5001346;28;20534;-70
2023/06/28 01:44:13;;;;;;;5.28;2.65;;;;;;;16.56;83.18;101772.88;4987924;28;20166;-70
2023/06/28 01:46:39;;;;;;;9.18;2.72;;;;;;;16.56;83.25;101777.50;4985305;28;20038;-70
2023/06/28 01:49:06;;;;;;;7.60;3.28;;;;;;;16.55;84.82;101767.50;5001301;28;20077;-70
2023/06/28 01:51:33;;;;;;;10.55;3.78;;;;;;;16.54;83.84;101772.13;5006205;28;20109;-70
2023/06/28 01:53:59;;;;;;;5.03;2.83;;;;;;;16.54;84.00;101769.38;5004115;28;20021;-70
2023/06/28 01:56:25;;;;;;;8.90;3.10;;;;;;;16.53;84.71;101766.75;5004735;28;20052;-70
2023/06/28 01:58:50;;;;;;;4.90;3.40;;;;;;;16.53;84.34;101767.63;4984364;28;20092;-70
2023/06/28 02:01:16;;;;;;;8.90;3.30;;;;;;;16.54;84.87;101772.13;4986972;28;20475;-70
2023/06/28 02:03:41;;;;;;;9.38;3.15;;;;;;;16.53;83.41;101770.38;4989584;28;20096;-70
2023/06/28 02:06:08;;;;;;;10.05;3.80;;;;;;;16.53;83.24;101761.28;4989923;28;20066;-70
2023/06/28 02:08:34;;;;;;;7.65;3.45;;;;;;;16.45;83.84;101767.38;4990328;28;20121;-70
2023/06/28 02:10:59;;;;;;;8.40;3.10;;;;;;;16.44;82.37;101764.78;4989728;28;20030;-70
2023/06/28 02:13:24;;;;;;;7.57;3.42;;;;;;;16.37;81.66;101767.16;5005371;28;20038;-70
2023/06/28 02:15:50;;;;;;;5.70;3.10;;;;;;;16.33;82.04;101761.03;4988732;28;20134;-70
2023/06/28 02:18:16;;;;;;;5.90;3.47;;;;;;;16.32;81.78;101762.06;4990065;28;20073;-70
2023/06/28 02:20:45;;;;;;;7.88;3.28;;;;;;;16.28;82.40;101756.94;4988957;28;20049;-70
2023/06/28 02:23:10;;;;;;;7.72;3.15;;;;;;;16.31;82.56;101751.16;4988587;28;20042;-70
2023/06/28 02:25:35;;;;;;;5.55;2.90;;;;;;;16.35;82.82;101760.03;4989246;28;20054;-70
2023/06/28 02:28:01;;;;;;;5.93;3.20;;;;;;;16.36;82.74;101750.78;4989923;28;20049;-70
2023/06/28 02:30:26;;;;;;;8.25;3.05;;;;;;;16.37;83.19;101747.03;4990201;28;20034;-70
2023/06/28 02:32:52;;;;;;;5.00;3.17;;;;;;;16.37;83.44;101744.28;4989966;28;20034;-70
2023/06/28 02:35:17;;;;;;;7.00;3.10;;;;;;;16.36;83.32;101748.03;4989898;28;20038;-70
2023/06/28 02:37:42;;;;;;;11.32;3.55;;;;;;;16.36;83.81;101748.91;5005108;28;20057;-70
2023/06/28 02:40:10;;;;;;;10.38;3.08;;;;;;;16.35;81.93;101747.19;4989185;28;20042;-70
2023/06/28 02:42:36;;;;;;;3.75;2.90;;;;;;;16.33;83.07;101741.81;4989793;28;20450;-69
2023/06/28 02:45:02;;;;;;;6.05;2.92;;;;;;;16.34;83.03;101745.44;4990780;28;20125;-70
2023/06/28 02:47:27;;;;;;;8.55;2.97;;;;;;;16.33;84.05;101746.44;5004536;28;20030;-69
2023/06/28 02:49:52;;;;;;;8.75;2.95;;;;;;;16.32;83.99;101747.44;4989780;28;20113;-70
2023/06/28 02:52:18;;;;;;;8.93;3.42;;;;;;;16.29;83.10;101750.44;4988014;28;20398;-69
2023/06/28 02:54:44;;;;;;;6.55;3.13;;;;;;;16.27;83.23;101749.66;5004283;28;20132;-69
2023/06/28 02:57:10;;;;;;;8.75;3.20;;;;;;;16.26;83.29;101751.56;4988262;28;20044;-69
2023/06/28 02:59:46;;;;;;;9.60;3.30;;;;;;;16.26;84.31;101745.19;4988756;28;20030;-70
2023/06/28 03:02:14;;;;;;;5.32;2.65;;;;;;;16.24;85.34;101752.69;4990401;28;20458;-70
2023/06/28 03:04:40;;;;;;;9.00;2.80;;;;;;;16.25;85.22;101737.97;5004534;28;20034;-70
2023/06/28 03:07:17;;;;;;;9.35;3.03;;;;;;;16.23;85.03;101738.09;5003655;28;20066;-70
2023/06/28 03:09:44;;;;;;;10.20;2.55;;;;;;;16.24;84.62;101748.06;4987995;28;20462;-70
2023/06/28 03:12:10;;;;;;;7.05;3.10;;;;;;;16.21;84.20;101742.81;4987467;28;20023;-70
2023/06/28 03:14:35;;;;;;;6.53;3.35;;;;;;;16.20;84.28;101745.69;4990622;28;20112;-70
2023/06/28 03:17:01;;;;;;;6.82;3.55;;;;;;;16.21;85.24;101745.56;4987894;28;20157;-70
2023/06/28 03:19:26;;;;;;;11.25;3.03;;;;;;;16.17;85.47;101741.31;5004278;28;20034;-70
2023/06/28 03:21:52;;;;;;;4.97;3.00;;;;;;;16.12;85.65;101748.19;5003483;28;20145;-70
2023/06/28 03:24:17;;;;;;;7.25;2.92;;;;;;;16.12;85.45;101743.56;5003639;28;20410;-70
2023/06/28 03:26:43;;;;;;;5.63;3.30;;;;;;;16.14;85.90;101733.34;4989522;28;20061;-70
2023/06/28 03:29:09;;;;;;;5.85;2.95;;;;;;;16.08;86.97;101736.56;5003864;28;20066;-70
2023/06/28 03:31:34;;;;;;;7.75;3.63;;;;;;;15.99;86.63;101735.50;4990071;28;20662;-70
2023/06/28 03:34:01;;;;;;;6.47;3.10;;;;;;;15.97;86.25;101740.22;5004065;28;20203;-70
2023/06/28 03:36:27;;;;;;;6.95;3.00;;;;;;;15.99;85.89;101740.06;5003340;28;20030;-70
2023/06/28 03:38:53;;;;;;;11.13;3.42;;;;;;;15.98;86.41;101735.59;4993934;28;20029;-70
2023/06/28 03:41:19;;;;;;;7.68;3.50;;;;;;;15.95;87.61;101738.59;5006437;28;20516;-70
2023/06/28 03:43:44;;;;;;;8.68;3.30;;;;;;;15.98;86.15;101735.59;5000343;28;20033;-70
2023/06/28 03:46:10;;;;;;;6.15;3.22;;;;;;;15.98;86.65;101730.97;4992921;28;20174;-70
2023/06/28 03:48:35;;;;;;;12.40;3.63;;;;;;;15.97;86.54;101736.59;5003389;28;20041;-70
2023/06/28 03:51:02;;;;;;;9.82;4.18;;;;;;;15.95;87.32;101736.72;5003057;28;20121;-71
2023/06/28 03:53:27;;;;;;;8.20;3.30;;;;;;;15.95;87.27;101736.72;5003002;28;20530;-70
2023/06/28 03:55:53;;;;;;;6.68;3.55;;;;;;;15.94;87.07;101737.69;4988041;28;20038;-70
2023/06/28 03:58:18;;;;;;;7.45;3.65;;;;;;;15.93;86.41;101724.97;5003146;28;20038;-70
2023/06/28 04:00:44;;;;;;;6.85;4.00;;;;;;;15.92;87.42;101731.47;4989286;28;20192;-70
2023/06/28 04:03:09;;;;;;;9.18;3.85;;;;;;;15.92;87.23;101733.34;4988291;28;20057;-70
2023/06/28 04:05:34;;;;;;;8.55;4.00;;;;;;;15.90;88.21;101729.84;5002853;28;20038;-70
2023/06/28 04:08:01;;;;;;;7.70;4.05;;;;;;;15.89;87.88;101730.84;4987696;28;20026;-70
2023/06/28 04:10:28;;;;;;;6.35;3.47;;;;;;;15.86;88.60;101726.50;4987555;28;20486;-70
2023/06/28 04:12:53;;;;;;;7.13;3.85;;;;;;;15.85;89.30;101727.47;4988442;28;20026;-70
2023/06/28 04:15:18;;;;;;;8.00;3.88;;;;;;;15.82;90.20;101714.88;4988299;28;20125;-70
2023/06/28 04:17:44;;;;;;;9.18;3.80;;;;;;;15.77;89.79;101710.78;4988763;28;20042;-70
2023/06/28 04:20:10;;;;;;;8.70;3.83;;;;;;;15.80;89.80;101719.59;4987674;28;20026;-70
2023/06/28 04:22:36;;;;;;;8.48;4.15;;;;;;;15.84;89.01;101713.88;4986940;28;20045;-70
2023/06/28 04:25:02;;;;;;;8.98;4.07;;;;;;;15.90;89.14;101730.75;4987328;28;20042;-70
2023/06/28 04:27:27;;;;;;;6.57;3.58;;;;;;;15.91;88.53;101723.38;4988031;28;20066;-70
2023/06/28 04:29:53;;;;;;;13.13;4.10;;;;;;;15.91;88.84;101720.63;4988099;28;20121;-70
2023/06/28 04:32:26;;;;;;;9.55;4.20;;;;;;;15.92;88.67;101728.72;4987836;28;20034;-70
2023/06/28 04:34:53;;;;;;;8.95;4.18;;;;;;;15.94;89.33;101734.94;4986453;28;20042;-70
2023/06/28 04:37:22;;;;;;;8.88;4.20;;;;;;;15.95;88.13;101728.50;4986953;28;20062;-70
2023/06/28 04:39:48;;;;;;;7.65;4.05;;;;;;;16.01;88.28;101736.22;4987638;28;20161;-70
2023/06/28 04:42:14;;;;;;;12.05;4.45;;;;;;;16.05;87.46;101732.22;4988548;28;20080;-70
2023/06/28 04:44:43;;;;;;;9.05;4.15;;;;;;;16.05;88.55;101737.72;4988404;28;20100;-70
2023/06/28 04:47:09;;;;;;;8.13;4.40;;;;;;;16.10;88.53;101736.47;4987787;28;20064;-70
2023/06/28 04:49:35;;;;;;;8.32;4.32;;;;;;;16.11;89.33;101735.47;4997653;28;20042;-70
2023/06/28 04:52:00;;;;;;;12.52;4.38;;;;;;;16.13;88.88;101726.09;5006697;28;20478;-70
2023/06/28 04:54:26;;;;;;;10.32;4.75;;;;;;;16.14;88.17;101733.34;5006914;28;20030;-70
2023/06/28 04:56:51;;;;;;;8.57;4.47;;;;;;;16.12;88.23;101727.09;5005435;28;20025;-70
2023/06/28 04:59:17;;;;;;;10.43;4.80;;;;;;;16.08;88.56;101734.69;4996180;28;20114;-70
2023/06/28 05:01:42;;;;;;;10.20;5.22;;;;;;;16.06;88.92;101730.34;4987825;28;20038;-70
2023/06/28 05:04:08;;;;;;;12.52;4.97;;;;;;;16.04;89.53;101732.34;4987477;28;20418;-70
2023/06/28 05:06:35;;;;;;;15.93;4.78;;;;;;;16.01;89.14;101727.13;4986908;28;20054;-70
2023/06/28 05:09:02;;;;;;;16.98;5.30;;;;;;;16.00;90.77;101723.50;5003954;28;20049;-70
2023/06/28 05:11:27;;;;;;;10.32;5.05;;;;;;;16.03;90.49;101725.09;5006676;28;20482;-70
2023/06/28 05:13:52;;;;;;;9.55;4.07;;;;;;;16.06;90.06;101719.38;5000073;28;20069;-70
2023/06/28 05:16:18;;;;;;;17.98;4.75;;;;;;;16.13;90.22;101722.47;4987262;28;20034;-70
2023/06/28 05:18:43;;;;;;;6.43;4.40;;;;;;;16.18;89.29;101729.38;4988178;28;20034;-70
2023/06/28 05:21:09;;;;;;;12.43;4.82;;;;;;;16.23;89.87;101727.13;4987163;28;20034;-70
2023/06/28 05:23:34;;;;;;;12.15;4.72;;;;;;;16.25;88.35;101730.59;4987410;28;20118;-70
2023/06/28 05:26:01;;;;;;;10.05;4.20;;;;;;;16.29;88.51;101733.97;5001619;28;20046;-70
2023/06/28 05:28:26;;;;;;;7.97;4.40;;;;;;;16.29;88.08;101731.22;5002659;28;20038;-70
2023/06/28 05:30:51;;;;;;;7.68;4.93;;;;;;;16.28;88.92;101733.09;4987335;28;20125;-70
2023/06/28 05:33:17;;;;;;;11.82;4.97;;;;;;;16.27;89.79;101731.34;4987296;28;20038;-71
2023/06/28 05:35:42;;;;;;;9.40;4.45;;;;;;;16.26;89.09;101735.06;5005729;28;20034;-70
2023/06/28 05:38:07;;;;;;;13.05;5.00;;;;;;;16.27;88.45;101722.22;5005557;28;20058;-70
2023/06/28 05:40:34;;;;;;;9.80;4.65;;;;;;;16.26;88.87;101723.22;4991062;28;20034;-71
2023/06/28 05:43:00;;;;;;;10.48;5.15;;;;;;;16.24;88.16;101722.50;4990672;28;20138;-70
2023/06/28 05:45:27;;;;;;;9.55;4.60;;;;;;;16.23;88.35;101712.50;4991894;28;20117;-70
2023/06/28 05:47:52;;;;;;;9.85;4.88;;;;;;;16.24;87.95;101717.00;5005489;28;20410;-70
2023/06/28 05:50:20;;;;;;;12.07;5.10;;;;;;;16.28;87.91;101715.75;4990696;28;20044;-70
2023/06/28 05:52:46;;;;;;;10.80;5.10;;;;;;;16.29;88.56;101712.00;4990368;28;20490;-71
2023/06/28 05:55:11;;;;;;;12.50;4.90;;;;;;;16.35;89.25;101711.47;4990838;28;20054;-70
2023/06/28 05:57:37;;;;;;;12.75;5.45;;;;;;;16.39;89.96;101717.59;4990353;28;20499;-70
2023/06/28 06:00:04;;;;;;;15.07;5.30;;;;;;;16.40;90.00;101714.72;5004772;28;20084;-70
2023/06/28 06:02:30;;;;;;;10.45;5.93;;;;;;;16.41;88.34;101719.19;4990512;28;20104;-70
2023/06/28 06:04:58;;;;;;;9.45;5.47;;;;;;;16.45;88.26;101719.81;5005897;28;20128;-70
2023/06/28 06:07:23;;;;;;;11.95;4.95;;;;;;;16.47;88.30;101717.84;4989718;28;20078;-71
2023/06/28 06:09:48;;;;;;;14.75;5.55;;;;;;;16.50;88.21;101714.81;4989764;28;20072;-71
2023/06/28 06:12:14;;;;;;;9.77;5.28;;;;;;;16.50;89.33;101712.94;5005498;28;20042;-70
2023/06/28 06:14:39;;;;;;;8.73;4.43;;;;;;;16.54;88.54;101716.31;4991009;28;20026;-70
2023/06/28 06:17:05;;;;;;;14.00;5.80;;;;;;;16.53;89.29;101703.59;4990149;28;20899;-71
2023/06/28 06:19:31;;;;;;;6.85;5.03;;;;;;;16.54;88.20;101705.31;4989936;28;20100;-71
2023/06/28 06:21:56;;;;;;;11.38;5.40;;;;;;;16.57;88.35;101708.69;4989491;28;20029;-71
2023/06/28 06:24:21;;;;;;;14.65;6.20;;;;;;;16.61;88.90;101719.44;4990086;28;20486;-70
2023/06/28 06:26:47;;;;;;;8.07;4.63;;;;;;;16.66;89.49;101720.78;4989371;28;20038;-71
2023/06/28 06:29:12;;;;;;;8.55;5.25;;;;;;;16.70;88.84;101708.53;4990743;28;20045;-70
2023/06/28 06:31:37;;;;;;;11.68;5.45;;;;;;;16.73;90.11;101705.53;4989684;28;20327;-70
2023/06/28 06:34:03;;;;;;;10.60;5.00;;;;;;;16.77;89.08;101709.78;4989982;28;20058;-71
2023/06/28 06:36:28;;;;;;;11.13;5.20;;;;;;;16.86;89.74;101701.75;4989569;28;20050;-70
2023/06/28 06:38:55;;;;;;;11.82;4.80;;;;;;;16.92;88.24;101707.59;4989511;28;20169;-70
2023/06/28 06:41:24;;;;;;;9.80;5.47;;;;;;;16.96;89.16;101709.06;4989048;28;20377;-71
2023/06/28 06:43:49;;;;;;;10.90;5.32;;;;;;;16.99;88.67;101710.72;5004864;28;20092;-71
2023/06/28 06:46:15;;;;;;;10.70;5.65;;;;;;;16.99;89.58;101714.31;4989823;28;20042;-70
2023/06/28 06:48:41;;;;;;;10.35;5.35;;;;;;;17.02;87.21;101719.56;4990143;28;20042;-70
2023/06/28 06:51:07;;;;;;;9.95;5.30;;;;;;;17.05;88.96;101718.41;4989595;28;20446;-71
2023/06/28 06:53:32;;;;;;;11.30;5.97;;;;;;;17.08;87.83;101718.16;4989104;28;20104;-71
2023/06/28 06:55:57;;;;;;;13.07;5.95;;;;;;;17.03;87.62;101715.81;4988715;28;20046;-70
2023/06/28 06:58:23;;;;;;;11.70;5.45;;;;;;;17.03;88.04;101721.31;4989731;28;20030;-71
2023/06/28 07:00:51;;;;;;;11.18;5.40;;;;;;;17.05;88.21;101726.66;5003693;28;20030;-71
2023/06/28 07:03:17;;;;;;;17.55;6.15;;;;;;;17.11;88.92;101726.13;4989354;28;20533;-71
2023/06/28 07:05:42;;;;;;;12.18;5.65;;;;;;;17.15;87.87;101735.00;4989652;28;20038;-71
2023/06/28 07:08:08;;;;;;;15.07;6.18;;;;;;;17.18;86.70;101726.50;4988780;28;20474;-71
2023/06/28 07:10:33;;;;;;;13.43;6.18;;;;;;;17.16;87.42;101729.38;4989002;28;20042;-71
2023/06/28 07:12:58;;;;;;;17.65;6.00;;;;;;;17.15;87.24;101729.50;5003969;28;20057;-71
2023/06/28 07:15:24;;;;;;;11.70;6.05;;;;;;;17.16;88.19;101725.72;5003443;28;20581;-71
2023/06/28 07:17:50;;;;;;;13.43;5.97;;;;;;;17.15;88.14;101727.63;4989168;28;20077;-71
2023/06/28 07:20:16;;;;;;;14.43;7.07;;;;;;;17.16;87.01;101732.13;4989043;28;20099;-71
2023/06/28 07:22:41;;;;;;;10.45;5.57;;;;;;;17.18;85.45;101729.25;4989202;28;20133;-71
2023/06/28 07:25:07;;;;;;;16.05;6.00;;;;;;;17.18;85.94;101734.75;4988858;28;20492;-71
2023/06/28 07:27:32;;;;;;;8.93;5.75;;;;;;;17.21;85.76;101740.00;5003973;28;20474;-71
2023/06/28 07:29:57;;;;;;;10.60;5.45;;;;;;;17.17;85.40;101739.38;4988973;28;20066;-71
2023/06/28 07:32:26;;;;;;;12.52;5.50;;;;;;;17.19;85.68;101740.09;4988783;28;20052;-71
2023/06/28 07:34:51;;;;;;;12.10;6.07;;;;;;;17.17;85.24;101735.75;5004111;28;20038;-71
2023/06/28 07:37:17;;;;;;;13.40;5.97;;;;;;;17.22;84.94;101739.84;4988005;28;20046;-71
2023/06/28 07:39:42;;;;;;;13.93;5.75;;;;;;;17.25;85.25;101738.69;4988631;28;20030;-71
2023/06/28 07:42:08;;;;;;;11.27;5.18;;;;;;;17.29;86.11;101740.19;4988832;28;20058;-71
2023/06/28 07:44:33;;;;;;;13.40;6.05;;;;;;;17.32;84.40;101738.03;4988844;28;20046;-71
2023/06/28 07:46:58;;;;;;;10.43;5.90;;;;;;;17.38;85.05;101730.25;4989012;28;20382;-71
2023/06/28 07:49:24;;;;;;;17.27;5.90;;;;;;;17.52;85.36;101732.66;5005239;28;20377;-71
2023/06/28 07:51:49;;;;;;;13.40;5.82;;;;;;;17.55;85.58;101736.03;5007326;28;20052;-71
2023/06/28 07:54:14;;;;;;;11.15;5.30;;;;;;;17.59;83.57;101734.75;4990901;28;20046;-71
2023/06/28 07:56:40;;;;;;;13.98;5.18;;;;;;;17.67;85.23;101738.69;5002945;28;20088;-71
2023/06/28 07:59:05;;;;;;;9.75;5.65;;;;;;;17.71;85.05;101727.28;4985668;28;20038;-71
2023/06/28 08:01:33;;;;;;;11.32;5.68;;;;;;;17.70;82.19;101736.56;4988978;28;20034;-71
2023/06/28 08:03:59;;;;;;;12.65;5.45;;;;;;;17.67;83.90;101739.56;4988358;28;20430;-71
2023/06/28 08:06:24;;;;;;;11.95;5.22;;;;;;;17.65;82.96;101724.22;4988131;28;20071;-71
2023/06/28 08:08:50;;;;;;;10.50;4.95;;;;;;;17.68;83.27;101735.84;4987654;28;20542;-72
2023/06/28 08:11:16;;;;;;;10.25;4.90;;;;;;;17.63;83.53;101731.75;5006673;28;20038;-71
2023/06/28 08:13:41;;;;;;;14.75;5.05;;;;;;;17.61;80.75;101729.09;5003721;28;20521;-71
2023/06/28 08:16:06;;;;;;;9.70;4.70;;;;;;;17.62;81.20;101736.34;5002757;28;20042;-72
2023/06/28 08:18:32;;;;;;;11.60;5.07;;;;;;;17.69;83.64;101728.44;4988099;28;20383;-71
2023/06/28 08:20:57;;;;;;;8.65;5.07;;;;;;;17.76;83.01;101732.41;4987591;28;20117;-72
2023/06/28 08:23:22;;;;;;;9.52;4.85;;;;;;;17.85;80.49;101726.09;4988037;28;20042;-71
2023/06/28 08:25:48;;;;;;;10.32;4.95;;;;;;;17.84;82.64;101729.84;5002182;28;20073;-71
2023/06/28 08:28:13;;;;;;;10.15;5.13;;;;;;;17.89;78.45;101727.56;4988723;28;20453;-71
2023/06/28 08:30:39;;;;;;;8.68;5.40;;;;;;;17.94;79.95;101730.78;4988270;28;20145;-72
2023/06/28 08:33:04;;;;;;;14.32;4.95;;;;;;;18.02;78.28;101733.72;5003041;28;20073;-71
2023/06/28 08:35:30;;;;;;;11.82;4.55;;;;;;;18.15;78.18;101732.63;5002596;28;20057;-72
2023/06/28 08:37:55;;;;;;;9.25;4.68;;;;;;;18.23;79.36;101732.78;4987304;28;20069;-72
2023/06/28 08:40:21;;;;;;;12.15;5.00;;;;;;;18.33;80.76;101742.84;4987213;28;20129;-71
2023/06/28 08:42:47;;;;;;;9.70;4.45;;;;;;;18.44;78.71;101741.84;4987328;28;20030;-72
2023/06/28 08:45:13;;;;;;;12.77;4.25;;;;;;;18.46;75.85;101736.19;4988814;28;20482;-72
2023/06/28 08:47:41;;;;;;;12.75;5.03;;;;;;;18.43;77.15;101734.63;4990350;28;20038;-72
2023/06/28 08:50:08;;;;;;;10.40;5.18;;;;;;;18.46;75.27;101736.19;5005378;28;20030;-71
2023/06/28 08:52:35;;;;;;;12.05;4.75;;;;;;;18.57;80.68;101736.09;5004343;28;20075;-72
2023/06/28 08:55:01;;;;;;;9.93;4.70;;;;;;;18.68;76.46;101741.47;4985711;28;20398;-71
2023/06/28 08:57:27;;;;;;;15.63;4.90;;;;;;;18.74;75.88;101740.94;4986963;28;20109;-72
2023/06/28 08:59:53;;;;;;;12.85;5.00;;;;;;;18.93;77.69;101737.34;4988636;28;20042;-71
2023/06/28 09:02:21;;;;;;;10.63;4.68;;;;;;;19.00;73.59;101724.72;4987318;28;20095;-71
2023/06/28 09:04:48;;;;;;;7.38;4.32;;;;;;;19.09;74.21;101723.00;4987302;28;20030;-72
2023/06/28 09:07:15;;;;;;;8.25;4.53;;;;;;;19.26;77.82;101719.50;4987204;28;20142;-71
2023/06/28 09:09:42;;;;;;;7.95;4.72;;;;;;;19.37;75.96;101724.84;4988850;28;20164;-72
2023/06/28 09:12:09;;;;;;;11.77;5.65;;;;;;;19.46;75.99;101711.19;4991105;28;20042;-72
2023/06/28 09:14:35;;;;;;;12.05;5.07;;;;;;;19.57;76.37;101719.31;4991788;28;20123;-71
2023/06/28 09:17:00;;;;;;;12.93;5.00;;;;;;;19.57;74.83;101713.78;4991819;28;20042;-71
2023/06/28 09:19:25;;;;;;;9.40;4.97;;;;;;;19.55;73.68;101715.84;4990149;28;20041;-71
2023/06/28 09:21:51;;;;;;;14.77;5.15;;;;;;;19.66;74.33;101717.56;4990378;28;20045;-71
2023/06/28 09:24:16;;;;;;;9.43;4.50;;;;;;;19.66;72.54;101709.28;4990644;28;20041;-72
2023/06/28 09:26:45;;;;;;;15.70;4.82;;;;;;;19.61;73.34;101724.41;4989780;28;20598;-72
2023/06/28 09:29:12;;;;;;;9.32;3.97;;;;;;;19.64;72.94;101717.72;4992530;28;20506;-71
2023/06/28 09:31:41;;;;;;;14.02;4.53;;;;;;;19.66;73.74;101720.34;4993542;28;20046;-71
2023/06/28 09:34:07;;;;;;;15.45;4.53;;;;;;;19.55;73.34;101718.59;4990905;28;20034;-71
2023/06/28 09:36:33;;;;;;;10.48;4.47;;;;;;;19.68;71.86;101721.94;4990598;28;20088;-72
2023/06/28 09:39:02;;;;;;;25.80;4.70;;;;;;;19.79;72.53;101719.00;5005333;28;20061;-71
2023/06/28 09:41:42;;;;;;;9.45;4.55;;;;;;;19.97;72.70;101723.75;4997230;28;20088;-71
2023/06/28 09:44:09;;;;;;;11.65;4.47;;;;;;;20.11;69.30;101720.47;4991312;28;20033;-71
2023/06/28 09:46:34;;;;;;;9.57;4.05;;;;;;;20.26;72.23;101720.84;5005720;28;20049;-71
2023/06/28 09:49:00;;;;;;;13.25;4.75;;;;;;;20.36;71.13;101713.38;5004170;28;20393;-72
2023/06/28 09:51:25;;;;;;;9.50;3.83;;;;;;;20.58;70.81;101706.59;5008683;28;20042;-72
2023/06/28 09:53:58;;;;;;;9.40;3.92;;;;;;;20.70;70.17;101705.31;4992685;28;20500;-71
2023/06/28 09:56:38;;;;;;;10.55;3.92;;;;;;;21.00;69.28;101715.16;4990147;28;20099;-71
2023/06/28 09:59:08;;;;;;;11.25;3.97;;;;;;;21.29;67.61;101714.91;4991005;28;20034;-72
2023/06/28 10:01:38;;;;;;;9.88;3.78;;;;;;;21.49;66.46;101706.44;4991198;28;20038;-71
2023/06/28 10:04:07;;;;;;;8.93;4.15;;;;;;;21.74;66.11;101704.72;4990423;28;20505;-71
2023/06/28 10:06:35;;;;;;;10.07;3.97;;;;;;;21.94;64.07;101703.47;4989796;28;20022;-71
2023/06/28 10:09:00;;;;;;;6.78;3.60;;;;;;;22.13;65.39;101700.47;4989684;28;20209;-71
2023/06/28 10:11:30;;;;;;;8.02;3.88;;;;;;;22.27;64.96;101709.19;4990299;28;20117;-71
2023/06/28 10:13:56;;;;;;;8.70;3.88;;;;;;;22.42;62.74;101704.75;4990787;28;20026;-71
2023/06/28 10:16:24;;;;;;;10.02;3.95;;;;;;;22.44;62.52;101702.69;4990529;28;20090;-71
2023/06/28 10:18:50;;;;;;;14.90;4.80;;;;;;;22.42;61.87;101699.19;5005081;28;20045;-71
2023/06/28 10:21:17;;;;;;;9.07;3.85;;;;;;;22.59;62.69;101698.22;5003512;28;20038;-71
2023/06/28 10:23:43;;;;;;;7.72;3.53;;;;;;;22.73;61.34;101690.28;4989494;28;20073;-71
2023/06/28 10:26:12;;;;;;;8.95;3.72;;;;;;;22.83;59.30;101697.41;4989113;28;20476;-71
2023/06/28 10:28:40;;;;;;;8.65;3.33;;;;;;;22.99;60.21;101695.72;4991382;28;20573;-72
2023/06/28 10:31:06;;;;;;;7.22;3.28;;;;;;;23.16;59.30;101698.34;4996125;28;20500;-71
2023/06/28 10:33:33;;;;;;;11.70;3.63;;;;;;;23.15;57.90;101693.84;4988555;28;20049;-71
2023/06/28 10:36:02;;;;;;;8.65;3.45;;;;;;;23.35;60.09;101690.72;4989620;28;20332;-71
2023/06/28 10:38:31;;;;;;;7.90;3.38;;;;;;;23.36;56.17;101693.34;4989731;28;20046;-71
2023/06/28 10:40:57;;;;;;;7.60;3.10;;;;;;;23.58;59.07;101697.28;4989399;28;20026;-71
2023/06/28 10:43:24;;;;;;;7.00;3.50;;;;;;;23.67;55.51;101687.94;4989770;28;20486;-70
2023/06/28 10:45:51;;;;;;;11.65;3.83;;;;;;;23.80;57.66;101697.66;4989847;28;20038;-71
2023/06/28 10:48:20;;;;;;;12.32;3.42;;;;;;;23.93;56.30;101695.19;4989417;28;20097;-71
2023/06/28 10:50:47;;;;;;;6.90;3.30;;;;;;;24.21;59.95;101687.28;4989381;28;20125;-71
2023/06/28 10:53:20;;;;;;;8.15;3.58;;;;;;;24.30;55.24;101685.31;4989846;28;20050;-71
2023/06/28 10:56:05;;;;;;;10.77;3.40;;;;;;;24.44;57.96;101690.16;4989132;28;20046;-71
2023/06/28 10:58:38;;;;;;;9.52;4.00;;;;;;;24.54;56.42;101690.78;4989699;28;20046;-71
2023/06/28 11:01:05;;;;;;;13.20;3.88;;;;;;;24.67;56.24;101674.38;4989498;28;20485;-71
2023/06/28 11:03:42;;;;;;;10.00;4.05;;;;;;;24.76;57.19;101674.28;4989577;28;20049;-71
2023/06/28 11:06:11;;;;;;;7.60;3.53;;;;;;;25.10;54.66;101673.94;4989142;28;20042;-71
2023/06/28 11:08:45;;;;;;;14.05;4.50;;;;;;;25.34;55.89;101668.13;4988839;28;20046;-71
2023/06/28 11:11:35;;;;;;;9.10;3.75;;;;;;;25.61;55.33;101663.00;4996801;28;20497;-71
2023/06/28 11:14:26;;;;;;;8.73;3.90;;;;;;;25.67;54.89;101667.81;4989164;28;20359;-70
2023/06/28 11:16:58;;;;;;;10.68;3.95;;;;;;;25.64;50.99;101663.47;4989374;28;20046;-71
2023/06/28 11:19:25;;;;;;;;;;;;;;;26.01;54.00;101666.41;4989964;28;20057;-71